Time;durP1;ratioP1;P1;durP2;ratioP2;P2;SDS_P1;SDS_P2;PMS_P1;PMS_P2;Temp;Humidity;BMP_temperature;BMP_pressure;BME280_temperature;BME280_humidity;BME280_pressure;Samples;Min_cycle;Max_cycle;Signal;HPM_P1;HPM_P2
2023/06/16 00:01:59;;;;;;;;;18.00;17.00;;;;;;;;5089894;27;45364;-71
2023/06/16 00:04:25;;;;;;;;;16.25;15.25;;;;;;;;5084975;27;45294;-70
2023/06/16 00:06:52;;;;;;;;;15.00;14.50;;;;;;;;5087960;27;46364;-70
2023/06/16 00:09:21;;;;;;;;;16.00;15.75;;;;;;;;5102011;27;45509;-71
2023/06/16 00:11:47;;;;;;;;;17.75;17.50;;;;;;;;5100672;27;45413;-71
2023/06/16 00:14:12;;;;;;;;;18.00;18.00;;;;;;;;5100233;27;45443;-71
2023/06/16 00:16:37;;;;;;;;;24.00;21.00;;;;;;;;5095871;27;45436;-70
2023/06/16 00:19:02;;;;;;;;;19.75;19.50;;;;;;;;5081302;27;46378;-70
2023/06/16 00:21:29;;;;;;;;;24.00;21.67;;;;;;;;5091150;27;45360;-70
2023/06/16 00:23:55;;;;;;;;;19.75;19.75;;;;;;;;5088070;27;45233;-71
2023/06/16 00:26:20;;;;;;;;;21.25;20.50;;;;;;;;5087977;27;45187;-70
2023/06/16 00:28:45;;;;;;;;;18.00;17.25;;;;;;;;5093780;27;46480;-70
2023/06/16 00:31:11;;;;;;;;;18.00;16.67;;;;;;;;5080275;27;45296;-70
2023/06/16 00:33:36;;;;;;;;;17.50;16.75;;;;;;;;5086988;27;45282;-70
2023/06/16 00:36:01;;;;;;;;;18.67;17.33;;;;;;;;5082845;27;45297;-70
2023/06/16 00:38:30;;;;;;;;;17.50;16.25;;;;;;;;5081025;27;46279;-70
2023/06/16 00:40:55;;;;;;;;;15.50;15.25;;;;;;;;5079737;27;45301;-71
2023/06/16 00:43:20;;;;;;;;;16.00;14.67;;;;;;;;5081552;27;45640;-70
2023/06/16 00:45:47;;;;;;;;;17.75;17.00;;;;;;;;5081165;27;45454;-70
2023/06/16 00:48:12;;;;;;;;;16.50;15.00;;;;;;;;5079631;27;48348;-70
2023/06/16 00:50:38;;;;;;;;;18.33;17.67;;;;;;;;5089636;27;45294;-70
2023/06/16 00:53:03;;;;;;;;;17.00;16.25;;;;;;;;5079734;27;45283;-70
2023/06/16 00:55:29;;;;;;;;;16.25;16.25;;;;;;;;5081018;27;45358;-70
2023/06/16 00:57:54;;;;;;;;;17.00;16.25;;;;;;;;5079561;28;46980;-70
2023/06/16 01:00:20;;;;;;;;;16.00;15.33;;;;;;;;5081043;27;45307;-70
2023/06/16 01:02:46;;;;;;;;;19.00;16.50;;;;;;;;5093331;27;45262;-70
2023/06/16 01:05:15;;;;;;;;;15.75;15.25;;;;;;;;5081093;27;45467;-70
2023/06/16 01:07:41;;;;;;;;;15.75;15.25;;;;;;;;5090002;27;47918;-70
2023/06/16 01:10:13;;;;;;;;;15.67;15.00;;;;;;;;5088644;27;45467;-70
2023/06/16 01:12:48;;;;;;;;;18.75;17.25;;;;;;;;5095444;27;45664;-70
2023/06/16 01:15:15;;;;;;;;;17.00;16.75;;;;;;;;5100222;27;45455;-70
2023/06/16 01:17:43;;;;;;;;;15.00;14.25;;;;;;;;5087042;27;45524;-70
2023/06/16 01:20:09;;;;;;;;;14.75;14.25;;;;;;;;5090609;27;45215;-70
2023/06/16 01:22:53;;;;;;;;;19.00;17.00;;;;;;;;5080661;27;45201;-70
2023/06/16 01:25:22;;;;;;;;;17.25;16.00;;;;;;;;5080468;27;45231;-70
2023/06/16 01:27:51;;;;;;;;;16.75;16.75;;;;;;;;5086761;27;47184;-70
2023/06/16 01:30:19;;;;;;;;;16.75;15.75;;;;;;;;5080604;27;45299;-70
2023/06/16 01:32:46;;;;;;;;;14.75;12.00;;;;;;;;5088283;27;45451;-70
2023/06/16 01:35:11;;;;;;;;;16.00;15.50;;;;;;;;5089507;27;45532;-70
2023/06/16 01:37:37;;;;;;;;;17.75;16.75;;;;;;;;5088688;27;46269;-70
2023/06/16 01:40:03;;;;;;;;;16.00;15.00;;;;;;;;5085723;27;45342;-70
2023/06/16 01:42:29;;;;;;;;;17.75;15.75;;;;;;;;5079871;27;45502;-71
2023/06/16 01:44:56;;;;;;;;;18.25;17.25;;;;;;;;5085715;27;45199;-70
2023/06/16 01:47:21;;;;;;;;;16.50;16.00;;;;;;;;5099070;27;45443;-70
2023/06/16 01:49:46;;;;;;;;;15.33;14.33;;;;;;;;5100613;27;45386;-70
2023/06/16 01:52:12;;;;;;;;;15.75;14.75;;;;;;;;5090338;27;45448;-70
2023/06/16 01:54:37;;;;;;;;;20.25;18.25;;;;;;;;5100008;27;45300;-70
2023/06/16 01:57:04;;;;;;;;;19.33;18.00;;;;;;;;5086772;27;45509;-70
2023/06/16 01:59:29;;;;;;;;;22.50;19.25;;;;;;;;5082110;27;45513;-70
2023/06/16 02:01:58;;;;;;;;;17.25;16.75;;;;;;;;5080646;27;45461;-71
2023/06/16 02:04:23;;;;;;;;;17.75;17.00;;;;;;;;5080028;27;45472;-69
2023/06/16 02:06:54;;;;;;;;;13.50;13.00;;;;;;;;5085845;27;46258;-70
2023/06/16 02:09:20;;;;;;;;;17.25;16.25;;;;;;;;5079975;27;45444;-70
2023/06/16 02:11:46;;;;;;;;;18.50;16.50;;;;;;;;5079965;27;45213;-70
2023/06/16 02:14:11;;;;;;;;;24.00;22.67;;;;;;;;5087915;27;45222;-70
2023/06/16 02:16:37;;;;;;;;;19.67;19.67;;;;;;;;5099909;27;46317;-70
2023/06/16 02:19:03;;;;;;;;;21.75;19.50;;;;;;;;5100256;27;45524;-70
2023/06/16 02:21:28;;;;;;;;;24.25;21.00;;;;;;;;5083405;27;45602;-70
2023/06/16 02:23:53;;;;;;;;;19.50;18.50;;;;;;;;5083192;27;45472;-70
2023/06/16 02:26:18;;;;;;;;;23.00;21.00;;;;;;;;5083326;27;46469;-70
2023/06/16 02:28:44;;;;;;;;;24.00;21.00;;;;;;;;5080829;27;45300;-70
2023/06/16 02:31:11;;;;;;;;;17.00;16.25;;;;;;;;5079996;27;45389;-70
2023/06/16 02:33:36;;;;;;;;;17.00;15.75;;;;;;;;5079583;27;45467;-70
2023/06/16 02:36:02;;;;;;;;;19.25;18.75;;;;;;;;5083667;27;45366;-70
2023/06/16 02:38:27;;;;;;;;;15.50;14.75;;;;;;;;5086580;27;45336;-70
2023/06/16 02:40:52;;;;;;;;;18.67;16.67;;;;;;;;5096350;27;45411;-70
2023/06/16 02:43:18;;;;;;;;;18.67;16.33;;;;;;;;5099270;27;45212;-70
2023/06/16 02:45:44;;;;;;;;;15.25;15.00;;;;;;;;5083865;27;46420;-70
2023/06/16 02:48:09;;;;;;;;;15.50;13.75;;;;;;;;5087645;27;45742;-70
2023/06/16 02:50:35;;;;;;;;;19.67;18.67;;;;;;;;5077511;28;45251;-70
2023/06/16 02:53:00;;;;;;;;;23.00;21.25;;;;;;;;5079132;27;45436;-70
2023/06/16 02:55:25;;;;;;;;;20.67;20.67;;;;;;;;5088723;27;46179;-70
2023/06/16 02:57:51;;;;;;;;;18.25;17.50;;;;;;;;5090546;27;45211;-70
2023/06/16 03:00:18;;;;;;;;;18.25;16.25;;;;;;;;5081297;27;45450;-70
2023/06/16 03:02:43;;;;;;;;;16.75;15.75;;;;;;;;5095874;27;45454;-71
2023/06/16 03:05:08;;;;;;;;;19.00;17.00;;;;;;;;5089224;27;46671;-71
2023/06/16 03:07:34;;;;;;;;;17.33;16.00;;;;;;;;5097798;27;45472;-71
2023/06/16 03:09:59;;;;;;;;;16.50;16.00;;;;;;;;5094871;27;45475;-71
2023/06/16 03:12:25;;;;;;;;;17.75;17.00;;;;;;;;5093558;27;45456;-71
2023/06/16 03:14:50;;;;;;;;;18.00;16.00;;;;;;;;5088351;27;45441;-71
2023/06/16 03:17:20;;;;;;;;;19.75;17.75;;;;;;;;5095546;27;45361;-71
2023/06/16 03:19:46;;;;;;;;;22.25;20.50;;;;;;;;5095202;27;45374;-71
2023/06/16 03:22:11;;;;;;;;;14.25;14.25;;;;;;;;5096339;27;45189;-71
2023/06/16 03:24:37;;;;;;;;;14.00;13.67;;;;;;;;5091480;27;46474;-71
2023/06/16 03:27:02;;;;;;;;;17.25;16.75;;;;;;;;5083849;27;45353;-71
2023/06/16 03:29:28;;;;;;;;;18.75;16.00;;;;;;;;5099288;27;45206;-71
2023/06/16 03:31:53;;;;;;;;;18.33;18.00;;;;;;;;5084611;27;45519;-71
2023/06/16 03:34:18;;;;;;;;;20.33;19.00;;;;;;;;5084716;27;45471;-71
2023/06/16 03:36:43;;;;;;;;;21.33;17.67;;;;;;;;5082052;27;45503;-71
2023/06/16 03:39:08;;;;;;;;;18.33;16.00;;;;;;;;5094784;27;45326;-71
2023/06/16 03:41:33;;;;;;;;;18.00;16.33;;;;;;;;5087518;27;45871;-71
2023/06/16 03:43:59;;;;;;;;;17.00;15.00;;;;;;;;5094482;27;47003;-71
2023/06/16 03:46:24;;;;;;;;;17.25;16.25;;;;;;;;5080702;28;45695;-71
2023/06/16 03:48:49;;;;;;;;;17.67;17.67;;;;;;;;5101812;27;45625;-71
2023/06/16 03:51:16;;;;;;;;;19.67;17.67;;;;;;;;5096128;27;45392;-71
2023/06/16 03:53:41;;;;;;;;;19.50;18.25;;;;;;;;5085946;27;45491;-71
2023/06/16 03:56:07;;;;;;;;;17.33;15.67;;;;;;;;5087007;27;45324;-71
2023/06/16 03:58:32;;;;;;;;;16.25;15.75;;;;;;;;5102487;27;45285;-71
2023/06/16 04:00:57;;;;;;;;;16.75;16.75;;;;;;;;5102171;27;45448;-71
2023/06/16 04:03:25;;;;;;;;;17.25;15.50;;;;;;;;5098683;27;47034;-71
2023/06/16 04:05:51;;;;;;;;;20.25;18.50;;;;;;;;5089070;27;45271;-71
2023/06/16 04:08:16;;;;;;;;;18.00;17.00;;;;;;;;5085532;27;45444;-72
2023/06/16 04:10:41;;;;;;;;;24.67;21.67;;;;;;;;5081292;27;45834;-71
2023/06/16 04:13:06;;;;;;;;;20.33;18.33;;;;;;;;5081326;27;46468;-71
2023/06/16 04:15:32;;;;;;;;;18.00;17.33;;;;;;;;5089429;27;45320;-71
2023/06/16 04:17:57;;;;;;;;;16.33;15.67;;;;;;;;5102107;27;45307;-71
2023/06/16 04:20:22;;;;;;;;;16.00;15.00;;;;;;;;5101532;27;45580;-71
2023/06/16 04:22:47;;;;;;;;;21.67;20.67;;;;;;;;5100319;27;45276;-71
2023/06/16 04:25:13;;;;;;;;;19.33;18.00;;;;;;;;5084617;27;45475;-71
2023/06/16 04:27:38;;;;;;;;;18.00;17.75;;;;;;;;5087526;27;45531;-71
2023/06/16 04:30:05;;;;;;;;;19.00;18.00;;;;;;;;5091078;27;45363;-71
2023/06/16 04:32:34;;;;;;;;;18.25;17.00;;;;;;;;5088325;27;45448;-71
2023/06/16 04:35:02;;;;;;;;;19.00;18.75;;;;;;;;5091104;27;45491;-71
2023/06/16 04:37:27;;;;;;;;;20.00;19.00;;;;;;;;5087361;27;45282;-71
2023/06/16 04:39:52;;;;;;;;;18.33;17.33;;;;;;;;5090448;27;45431;-70
2023/06/16 04:42:17;;;;;;;;;19.33;17.00;;;;;;;;5081200;27;45668;-72
2023/06/16 04:44:43;;;;;;;;;19.00;18.67;;;;;;;;5094754;27;45175;-71
2023/06/16 04:47:09;;;;;;;;;22.25;20.25;;;;;;;;5099629;27;45537;-70
2023/06/16 04:49:35;;;;;;;;;20.00;15.75;;;;;;;;5099549;27;46681;-71
2023/06/16 04:52:00;;;;;;;;;17.50;16.50;;;;;;;;5098619;27;46295;-70
2023/06/16 04:54:25;;;;;;;;;17.00;15.00;;;;;;;;5082232;27;45371;-71
2023/06/16 04:56:50;;;;;;;;;18.00;16.50;;;;;;;;5086530;27;45324;-71
2023/06/16 04:59:16;;;;;;;;;21.33;18.33;;;;;;;;5100019;27;45961;-71
2023/06/16 05:01:41;;;;;;;;;15.50;14.50;;;;;;;;5086536;27;46229;-71
2023/06/16 05:04:06;;;;;;;;;15.50;13.50;;;;;;;;5088570;27;45808;-71
2023/06/16 05:06:33;;;;;;;;;15.25;14.25;;;;;;;;5081429;27;45503;-71
2023/06/16 05:08:58;;;;;;;;;20.00;17.00;;;;;;;;5092332;27;45382;-71
2023/06/16 05:11:23;;;;;;;;;18.33;17.67;;;;;;;;5095419;27;45451;-71
2023/06/16 05:13:49;;;;;;;;;17.33;16.33;;;;;;;;5089196;27;45538;-71
2023/06/16 05:16:14;;;;;;;;;17.00;16.00;;;;;;;;5087600;27;45216;-71
2023/06/16 05:18:39;;;;;;;;;16.33;15.33;;;;;;;;5080379;27;45438;-71
2023/06/16 05:21:04;;;;;;;;;20.25;19.50;;;;;;;;5083924;27;46103;-71
2023/06/16 05:23:30;;;;;;;;;20.00;17.67;;;;;;;;5085640;27;45274;-71
2023/06/16 05:25:55;;;;;;;;;14.75;14.25;;;;;;;;5097745;27;45266;-71
2023/06/16 05:28:20;;;;;;;;;14.67;13.67;;;;;;;;5091550;27;45414;-71
2023/06/16 05:30:45;;;;;;;;;21.67;18.67;;;;;;;;5080564;27;46483;-71
2023/06/16 05:33:11;;;;;;;;;15.67;15.67;;;;;;;;5086231;27;45277;-71
2023/06/16 05:35:36;;;;;;;;;16.67;16.00;;;;;;;;5092033;27;45327;-71
2023/06/16 05:38:01;;;;;;;;;22.75;20.00;;;;;;;;5084707;27;47212;-71
2023/06/16 05:40:26;;;;;;;;;18.33;17.33;;;;;;;;5087390;27;45516;-71
2023/06/16 05:42:51;;;;;;;;;22.00;20.00;;;;;;;;5094465;27;45251;-71
2023/06/16 05:45:17;;;;;;;;;21.00;19.67;;;;;;;;5089160;27;45176;-67
2023/06/16 05:47:42;;;;;;;;;20.33;18.33;;;;;;;;5081858;27;45418;-67
2023/06/16 05:50:07;;;;;;;;;19.67;18.33;;;;;;;;5079827;27;46452;-67
2023/06/16 05:52:34;;;;;;;;;19.50;19.25;;;;;;;;5092133;27;45413;-67
2023/06/16 05:54:59;;;;;;;;;19.00;18.50;;;;;;;;5091530;27;45418;-67
2023/06/16 05:57:24;;;;;;;;;21.67;18.67;;;;;;;;5090641;27;45335;-67
2023/06/16 05:59:50;;;;;;;;;21.33;20.00;;;;;;;;5085217;27;47007;-67
2023/06/16 06:02:16;;;;;;;;;19.25;17.75;;;;;;;;5098577;27;45371;-67
2023/06/16 06:04:42;;;;;;;;;20.00;18.75;;;;;;;;5081254;27;45365;-67
2023/06/16 06:07:07;;;;;;;;;17.00;16.00;;;;;;;;5081622;27;45590;-68
2023/06/16 06:09:32;;;;;;;;;19.67;18.33;;;;;;;;5091204;27;46216;-68
2023/06/16 06:11:57;;;;;;;;;17.33;15.67;;;;;;;;5079822;27;45421;-67
2023/06/16 06:14:22;;;;;;;;;22.00;21.67;;;;;;;;5083988;27;45670;-67
2023/06/16 06:16:49;;;;;;;;;20.67;19.00;;;;;;;;5086449;27;46092;-66
2023/06/16 06:19:14;;;;;;;;;18.75;16.25;;;;;;;;5082955;27;46197;-66
2023/06/16 06:21:39;;;;;;;;;18.50;17.25;;;;;;;;5088357;27;45235;-70
2023/06/16 06:24:05;;;;;;;;;20.25;18.00;;;;;;;;5085621;27;45465;-68
2023/06/16 06:26:30;;;;;;;;;17.25;17.00;;;;;;;;5084942;27;45310;-68
2023/06/16 06:28:56;;;;;;;;;18.00;18.00;;;;;;;;5088936;27;46582;-68
2023/06/16 06:31:21;;;;;;;;;18.33;16.67;;;;;;;;5091331;27;45406;-68
2023/06/16 06:33:46;;;;;;;;;17.00;16.67;;;;;;;;5092866;27;45381;-69
2023/06/16 06:36:11;;;;;;;;;22.75;21.50;;;;;;;;5081910;27;45427;-67
2023/06/16 06:38:37;;;;;;;;;18.33;17.00;;;;;;;;5095469;27;45479;-68
2023/06/16 06:41:02;;;;;;;;;20.25;18.25;;;;;;;;5098231;27;45391;-68
2023/06/16 06:43:27;;;;;;;;;23.00;20.33;;;;;;;;5101766;27;45228;-69
2023/06/16 06:45:52;;;;;;;;;18.00;16.67;;;;;;;;5085924;27;45346;-68
2023/06/16 06:48:17;;;;;;;;;20.33;19.00;;;;;;;;5082768;27;45367;-68
2023/06/16 06:50:43;;;;;;;;;24.67;22.00;;;;;;;;5089955;27;45541;-68
2023/06/16 06:53:08;;;;;;;;;20.25;18.50;;;;;;;;5092220;27;45773;-68
2023/06/16 06:55:34;;;;;;;;;21.00;19.00;;;;;;;;5090465;27;45750;-69
2023/06/16 06:57:59;;;;;;;;;21.50;18.50;;;;;;;;5093164;27;47240;-69
2023/06/16 07:00:24;;;;;;;;;18.33;18.33;;;;;;;;5089371;27;45796;-68
2023/06/16 07:02:49;;;;;;;;;18.50;16.50;;;;;;;;5093521;27;45409;-68
2023/06/16 07:05:15;;;;;;;;;18.00;16.00;;;;;;;;5080711;27;46107;-67
2023/06/16 07:07:40;;;;;;;;;20.67;18.67;;;;;;;;5091209;27;46652;-68
2023/06/16 07:10:05;;;;;;;;;19.67;18.00;;;;;;;;5093843;27;45282;-69
2023/06/16 07:12:31;;;;;;;;;23.25;21.75;;;;;;;;5086274;27;45482;-69
2023/06/16 07:14:56;;;;;;;;;26.00;24.25;;;;;;;;5085654;27;45950;-69
2023/06/16 07:17:21;;;;;;;;;21.00;19.33;;;;;;;;5099024;27;46375;-69
2023/06/16 07:19:46;;;;;;;;;22.33;21.67;;;;;;;;5096911;27;45287;-69
2023/06/16 07:22:12;;;;;;;;;22.33;20.33;;;;;;;;5085456;27;45561;-68
2023/06/16 07:24:37;;;;;;;;;24.33;23.00;;;;;;;;5080751;27;46178;-70
2023/06/16 07:27:03;;;;;;;;;20.00;18.67;;;;;;;;5098304;27;46357;-67
2023/06/16 07:29:28;;;;;;;;;21.50;20.00;;;;;;;;5090351;27;45341;-69
2023/06/16 07:31:53;;;;;;;;;16.25;15.75;;;;;;;;5093451;27;45318;-69
2023/06/16 07:34:19;;;;;;;;;19.00;16.33;;;;;;;;5089666;27;47012;-67
2023/06/16 07:36:44;;;;;;;;;15.75;15.75;;;;;;;;5096172;27;45210;-68
2023/06/16 07:39:10;;;;;;;;;18.25;16.50;;;;;;;;5093588;27;45570;-69
2023/06/16 07:41:35;;;;;;;;;16.50;14.25;;;;;;;;5094511;27;45291;-68
2023/06/16 07:44:00;;;;;;;;;15.50;14.50;;;;;;;;5083046;27;45974;-67
2023/06/16 07:46:25;;;;;;;;;19.00;16.33;;;;;;;;5084354;27;46698;-67
2023/06/16 07:48:51;;;;;;;;;15.67;14.00;;;;;;;;5096960;27;45451;-67
2023/06/16 07:51:16;;;;;;;;;19.67;17.00;;;;;;;;5083177;27;45440;-68
2023/06/16 07:53:42;;;;;;;;;20.75;18.25;;;;;;;;5097927;27;45315;-68
2023/06/16 07:56:07;;;;;;;;;17.75;16.25;;;;;;;;5090025;27;46838;-68
2023/06/16 07:58:35;;;;;;;;;19.75;16.00;;;;;;;;5087955;27;45254;-68
2023/06/16 08:01:00;;;;;;;;;15.75;14.75;;;;;;;;5084716;27;45390;-68
2023/06/16 08:03:25;;;;;;;;;15.33;15.00;;;;;;;;5080345;27;45380;-67
2023/06/16 08:05:51;;;;;;;;;16.00;15.25;;;;;;;;5081871;27;46105;-68
2023/06/16 08:08:18;;;;;;;;;16.00;16.00;;;;;;;;5087738;27;45388;-68
2023/06/16 08:10:43;;;;;;;;;18.50;18.25;;;;;;;;5092374;27;45464;-69
2023/06/16 08:13:09;;;;;;;;;19.75;16.75;;;;;;;;5079180;27;45522;-68
2023/06/16 08:15:34;;;;;;;;;14.00;14.00;;;;;;;;5089033;27;46128;-71
2023/06/16 08:17:59;;;;;;;;;19.50;16.00;;;;;;;;5084304;27;45301;-67
2023/06/16 08:20:25;;;;;;;;;19.33;16.00;;;;;;;;5044964;27;1145280;-68
2023/06/16 08:22:50;;;;;;;;;16.00;15.25;;;;;;;;5080921;27;45414;-68
2023/06/16 08:25:16;;;;;;;;;17.75;15.50;;;;;;;;5089830;27;45585;-68
2023/06/16 08:27:41;;;;;;;;;15.00;13.75;;;;;;;;5087111;27;45291;-68
2023/06/16 08:30:06;;;;;;;;;14.67;14.00;;;;;;;;5091229;27;45450;-68
2023/06/16 08:32:32;;;;;;;;;17.00;14.75;;;;;;;;5083881;27;45337;-69
2023/06/16 08:34:57;;;;;;;;;16.00;14.75;;;;;;;;5083034;27;46347;-68
2023/06/16 08:37:23;;;;;;;;;14.33;12.33;;;;;;;;5081719;27;45577;-68
2023/06/16 08:39:48;;;;;;;;;17.50;13.75;;;;;;;;5079089;27;45306;-70
2023/06/16 08:42:14;;;;;;;;;13.00;12.67;;;;;;;;5081325;27;45370;-68
2023/06/16 08:44:40;;;;;;;;;16.00;15.00;;;;;;;;5079574;28;46019;-68
2023/06/16 08:47:05;;;;;;;;;15.75;14.75;;;;;;;;5093152;27;45697;-68
2023/06/16 08:49:31;;;;;;;;;15.25;15.25;;;;;;;;5086165;27;45835;-68
2023/06/16 08:51:56;;;;;;;;;14.00;13.00;;;;;;;;5097552;27;45496;-68
2023/06/16 08:54:24;;;;;;;;;12.75;9.25;;;;;;;;5084535;27;47170;-68
2023/06/16 08:56:51;;;;;;;;;18.00;16.00;;;;;;;;5084279;27;45582;-69
2023/06/16 08:59:17;;;;;;;;;12.75;12.00;;;;;;;;5088427;27;45290;-68
2023/06/16 09:01:42;;;;;;;;;13.75;13.75;;;;;;;;5088102;27;45523;-69
2023/06/16 09:04:13;;;;;;;;;16.00;13.33;;;;;;;;5095494;27;45453;-69
2023/06/16 09:06:44;;;;;;;;;13.50;11.25;;;;;;;;5081508;27;45543;-69
2023/06/16 09:09:09;;;;;;;;;16.25;14.00;;;;;;;;5081367;27;45606;-69
2023/06/16 09:11:34;;;;;;;;;12.25;12.25;;;;;;;;5092690;27;45435;-69
2023/06/16 09:14:08;;;;;;;;;13.00;13.00;;;;;;;;5094994;27;46136;-68
2023/06/16 09:16:33;;;;;;;;;12.50;11.00;;;;;;;;5087094;27;45844;-68
2023/06/16 09:19:05;;;;;;;;;14.33;14.00;;;;;;;;5085640;27;45572;-70
2023/06/16 09:21:31;;;;;;;;;11.75;11.00;;;;;;;;5088199;27;46729;-70
2023/06/16 09:23:57;;;;;;;;;12.50;11.25;;;;;;;;5095971;27;45578;-72
2023/06/16 09:26:23;;;;;;;;;10.50;10.00;;;;;;;;5083142;27;45242;-70
2023/06/16 09:28:48;;;;;;;;;11.25;10.50;;;;;;;;5099688;27;45360;-70
2023/06/16 09:31:15;;;;;;;;;10.00;10.00;;;;;;;;5083053;27;47381;-69
2023/06/16 09:33:40;;;;;;;;;12.25;10.75;;;;;;;;5095464;27;45616;-71
2023/06/16 09:36:07;;;;;;;;;16.75;13.25;;;;;;;;5091768;27;45380;-70
2023/06/16 09:38:38;;;;;;;;;11.00;10.00;;;;;;;;5092511;27;45357;-70
2023/06/16 09:41:10;;;;;;;;;12.50;12.50;;;;;;;;5089331;27;45311;-68
2023/06/16 09:43:37;;;;;;;;;10.25;10.00;;;;;;;;5085690;27;45528;-70
2023/06/16 09:46:02;;;;;;;;;13.25;11.75;;;;;;;;5092503;27;45302;-71
2023/06/16 09:48:32;;;;;;;;;11.00;11.00;;;;;;;;5098764;27;45432;-69
2023/06/16 09:50:58;;;;;;;;;11.25;9.75;;;;;;;;5088841;27;45525;-67
2023/06/16 09:53:26;;;;;;;;;10.00;10.00;;;;;;;;5092077;27;45456;-67
2023/06/16 09:55:53;;;;;;;;;10.25;10.25;;;;;;;;5098008;27;45300;-71
2023/06/16 09:58:19;;;;;;;;;13.00;12.25;;;;;;;;5079862;27;45597;-68
2023/06/16 10:00:44;;;;;;;;;17.75;16.00;;;;;;;;5081203;27;45293;-70
2023/06/16 10:03:10;;;;;;;;;12.75;12.50;;;;;;;;5084646;27;45455;-67
2023/06/16 10:05:37;;;;;;;;;19.50;17.00;;;;;;;;5094358;27;45511;-68
2023/06/16 10:08:04;;;;;;;;;13.25;12.75;;;;;;;;5087903;27;45379;-68
2023/06/16 10:10:30;;;;;;;;;9.25;9.25;;;;;;;;5091335;27;45442;-68
2023/06/16 10:12:56;;;;;;;;;13.00;11.75;;;;;;;;5086564;27;46414;-68
2023/06/16 10:15:27;;;;;;;;;10.75;10.25;;;;;;;;5092795;27;45281;-69
2023/06/16 10:18:02;;;;;;;;;12.25;12.00;;;;;;;;5086753;27;45520;-68
2023/06/16 10:20:28;;;;;;;;;9.50;9.50;;;;;;;;5088542;27;45318;-67
2023/06/16 10:22:54;;;;;;;;;13.00;12.00;;;;;;;;5081156;27;47613;-64
2023/06/16 10:25:20;;;;;;;;;11.75;11.00;;;;;;;;5086255;27;45385;-67
2023/06/16 10:27:45;;;;;;;;;11.50;11.25;;;;;;;;5091862;27;45309;-68
2023/06/16 10:30:21;;;;;;;;;13.00;11.75;;;;;;;;5080820;27;45541;-68
2023/06/16 10:32:47;;;;;;;;;12.25;12.00;;;;;;;;5082697;27;46360;-70
2023/06/16 10:35:13;;;;;;;;;13.00;11.00;;;;;;;;5084227;27;46648;-68
2023/06/16 10:37:38;;;;;;;;;12.00;12.00;;;;;;;;5088567;27;45397;-68
2023/06/16 10:40:12;;;;;;;;;17.00;12.33;;;;;;;;5087476;27;45391;-68
2023/06/16 10:42:38;;;;;;;;;12.00;12.00;;;;;;;;5095651;27;46317;-68
2023/06/16 10:45:24;;;;;;;;;11.00;10.50;;;;;;;;5088950;27;45344;-68
2023/06/16 10:47:57;;;;;;;;;11.25;11.00;;;;;;;;5094418;27;45341;-68
2023/06/16 10:50:29;;;;;;;;;11.00;10.75;;;;;;;;5098011;27;45470;-68
2023/06/16 10:52:54;;;;;;;;;11.25;10.50;;;;;;;;5078876;27;45547;-68
2023/06/16 10:55:37;;;;;;;;;10.75;10.75;;;;;;;;5086431;27;45425;-68
2023/06/16 10:58:18;;;;;;;;;11.75;10.50;;;;;;;;5091713;27;45400;-68
2023/06/16 11:01:16;;;;;;;;;11.25;11.25;;;;;;;;5087329;27;46011;-68
2023/06/16 11:03:42;;;;;;;;;15.00;13.75;;;;;;;;5075145;27;47025;-68
2023/06/16 11:06:08;;;;;;;;;13.00;13.00;;;;;;;;5096280;27;45403;-68
2023/06/16 11:08:52;;;;;;;;;11.50;10.50;;;;;;;;5080425;27;45385;-68
2023/06/16 11:11:18;;;;;;;;;12.00;11.25;;;;;;;;5081184;27;45512;-68
2023/06/16 11:13:43;;;;;;;;;13.25;13.00;;;;;;;;5078206;27;47002;-68
2023/06/16 11:16:08;;;;;;;;;11.00;10.50;;;;;;;;5082132;27;45527;-68
2023/06/16 11:18:33;;;;;;;;;12.00;11.75;;;;;;;;5082544;27;45310;-68
2023/06/16 11:21:02;;;;;;;;;11.00;11.00;;;;;;;;5089117;27;45516;-68
2023/06/16 11:23:28;;;;;;;;;14.00;13.50;;;;;;;;5085345;27;45567;-68
2023/06/16 11:26:01;;;;;;;;;13.75;12.75;;;;;;;;5094327;27;45245;-68
2023/06/16 11:28:27;;;;;;;;;12.00;11.75;;;;;;;;5095102;27;45279;-68
2023/06/16 11:30:53;;;;;;;;;13.75;12.25;;;;;;;;5088272;27;45293;-68
2023/06/16 11:33:21;;;;;;;;;13.25;11.25;;;;;;;;5100668;27;46588;-68
2023/06/16 11:35:46;;;;;;;;;12.25;10.75;;;;;;;;5090355;27;45303;-68
2023/06/16 11:38:11;;;;;;;;;12.75;11.75;;;;;;;;5089389;27;45364;-68
2023/06/16 11:40:37;;;;;;;;;15.67;14.67;;;;;;;;5081884;28;45626;-68
2023/06/16 11:43:03;;;;;;;;;13.75;12.75;;;;;;;;5081013;27;46170;-68
2023/06/16 11:45:32;;;;;;;;;13.25;12.50;;;;;;;;5082324;27;45436;-68
2023/06/16 11:47:58;;;;;;;;;15.00;14.00;;;;;;;;5084296;27;45267;-68
2023/06/16 11:50:24;;;;;;;;;14.75;14.50;;;;;;;;5100616;27;45507;-68
2023/06/16 11:52:50;;;;;;;;;16.00;14.00;;;;;;;;5088519;27;45345;-68
2023/06/16 11:55:15;;;;;;;;;11.00;10.50;;;;;;;;5086621;27;45240;-68
2023/06/16 11:57:41;;;;;;;;;14.00;11.50;;;;;;;;5080678;27;45321;-68
2023/06/16 12:00:08;;;;;;;;;13.50;13.00;;;;;;;;5093556;27;45310;-68
2023/06/16 12:02:34;;;;;;;;;8.75;8.25;;;;;;;;5097919;27;45668;-68
2023/06/16 12:04:59;;;;;;;;;11.50;11.50;;;;;;;;5087762;27;45296;-68
2023/06/16 12:07:25;;;;;;;;;10.50;9.50;;;;;;;;5090435;27;45375;-68
2023/06/16 12:09:54;;;;;;;;;15.00;13.50;;;;;;;;5091910;27;45892;-68
2023/06/16 12:12:20;;;;;;;;;12.75;12.25;;;;;;;;5088968;27;47826;-68
2023/06/16 12:14:45;;;;;;;;;12.75;11.25;;;;;;;;5100027;27;45327;-68
2023/06/16 12:17:10;;;;;;;;;10.50;10.00;;;;;;;;5082040;27;45380;-68
2023/06/16 12:19:36;;;;;;;;;11.00;11.00;;;;;;;;5081685;28;45321;-68
2023/06/16 12:22:02;;;;;;;;;12.75;11.50;;;;;;;;5082038;27;48253;-68
2023/06/16 12:24:28;;;;;;;;;11.25;11.25;;;;;;;;5088333;27;45329;-68
2023/06/16 12:26:53;;;;;;;;;12.50;12.50;;;;;;;;5085041;27;45284;-68
2023/06/16 12:29:19;;;;;;;;;14.00;13.00;;;;;;;;5081017;27;45345;-68
2023/06/16 12:31:52;;;;;;;;;11.25;11.25;;;;;;;;5093806;27;47023;-69
2023/06/16 12:34:25;;;;;;;;;12.25;11.75;;;;;;;;5083870;27;45396;-68
2023/06/16 12:36:51;;;;;;;;;12.00;11.00;;;;;;;;5082571;27;45337;-68
2023/06/16 12:39:17;;;;;;;;;11.25;9.50;;;;;;;;5084815;27;45552;-69
2023/06/16 12:41:53;;;;;;;;;12.75;11.25;;;;;;;;5087926;27;46679;-69
2023/06/16 12:44:19;;;;;;;;;13.00;11.50;;;;;;;;5101725;27;45235;-68
2023/06/16 12:46:44;;;;;;;;;13.67;13.00;;;;;;;;5090076;27;45295;-68
2023/06/16 12:49:09;;;;;;;;;11.67;11.00;;;;;;;;5080575;27;45564;-68
2023/06/16 12:51:34;;;;;;;;;12.25;12.25;;;;;;;;5088293;27;46012;-68
2023/06/16 12:53:59;;;;;;;;;10.25;10.00;;;;;;;;5086805;27;45281;-68
2023/06/16 12:56:26;;;;;;;;;12.00;11.50;;;;;;;;5092900;27;45184;-68
2023/06/16 12:58:52;;;;;;;;;12.25;11.00;;;;;;;;5094154;27;47358;-68
2023/06/16 13:01:17;;;;;;;;;10.50;10.50;;;;;;;;5096025;27;46459;-68
2023/06/16 13:03:46;;;;;;;;;13.67;13.67;;;;;;;;5079373;27;45337;-68
2023/06/16 13:06:11;;;;;;;;;13.00;11.00;;;;;;;;5082981;27;45889;-68
2023/06/16 13:08:36;;;;;;;;;14.33;13.67;;;;;;;;5087878;27;46348;-68
2023/06/16 13:11:02;;;;;;;;;13.25;11.50;;;;;;;;5095873;27;45676;-68
2023/06/16 13:13:27;;;;;;;;;14.67;13.67;;;;;;;;5092335;27;45305;-68
2023/06/16 13:15:52;;;;;;;;;13.00;11.67;;;;;;;;5096157;27;45341;-68
2023/06/16 13:18:18;;;;;;;;;11.00;11.00;;;;;;;;5097973;27;45714;-68
2023/06/16 13:20:44;;;;;;;;;10.50;10.50;;;;;;;;5086744;27;47056;-68
2023/06/16 13:23:10;;;;;;;;;11.75;10.75;;;;;;;;5091553;27;45510;-68
2023/06/16 13:25:35;;;;;;;;;11.00;10.00;;;;;;;;5091661;27;45230;-68
2023/06/16 13:28:00;;;;;;;;;12.33;12.33;;;;;;;;5089873;27;46129;-68
2023/06/16 13:30:25;;;;;;;;;13.25;12.25;;;;;;;;5080484;27;45958;-68
2023/06/16 13:32:50;;;;;;;;;9.67;8.67;;;;;;;;5079739;27;45184;-68
2023/06/16 13:35:16;;;;;;;;;13.33;13.00;;;;;;;;5085920;27;46447;-68
2023/06/16 13:37:41;;;;;;;;;11.67;11.67;;;;;;;;5079872;27;45417;-68
2023/06/16 13:40:06;;;;;;;;;12.67;12.00;;;;;;;;5095088;27;46491;-68
2023/06/16 13:42:32;;;;;;;;;14.50;14.25;;;;;;;;5090270;27;45447;-67
2023/06/16 13:44:57;;;;;;;;;16.00;14.00;;;;;;;;5088189;27;47038;-67
2023/06/16 13:47:22;;;;;;;;;13.00;13.00;;;;;;;;5089185;27;47118;-66
2023/06/16 13:49:48;;;;;;;;;13.00;12.67;;;;;;;;5091320;27;45405;-69
2023/06/16 13:52:13;;;;;;;;;14.00;12.75;;;;;;;;5077833;27;45723;-68
2023/06/16 13:54:38;;;;;;;;;14.75;13.50;;;;;;;;5089488;27;45418;-68
2023/06/16 13:57:04;;;;;;;;;10.67;10.00;;;;;;;;5081037;27;45498;-68
2023/06/16 13:59:29;;;;;;;;;10.75;10.25;;;;;;;;5085672;27;46945;-69
2023/06/16 14:01:54;;;;;;;;;12.00;12.00;;;;;;;;5086766;27;45727;-69
2023/06/16 14:04:19;;;;;;;;;13.00;12.25;;;;;;;;5086613;27;45494;-69
2023/06/16 14:06:45;;;;;;;;;10.75;10.00;;;;;;;;5084842;27;45389;-69
2023/06/16 14:09:10;;;;;;;;;12.00;11.25;;;;;;;;5086219;27;46485;-68
2023/06/16 14:11:35;;;;;;;;;11.00;11.00;;;;;;;;5079300;27;45708;-68
2023/06/16 14:14:00;;;;;;;;;10.67;10.33;;;;;;;;5091196;27;45476;-69